Terneuzen, Netherlands
Current Conditions -  °F | °C
As of 11:55 PM on Thursday 27 Nov 2014 (Local Time) from EHFS Reporting Station
Overcast Overcast  
Wind Chill: 50°   Ceiling: 700
Heat Index: 50°   Visibility: 4mi
Dew Point: 48°   Wind: 16mph
Humidity: 94%   Direction: 100°E
Pressure: 29.65"   Gusts: NA
Location:  51.34°N, 3.83°E
Report Text: EHFS 272255Z AUTO 10014KT 7000 OVC007/// 10/09 Q1004
Loading
Personal Weather Stations






























Interactive Weather Map New forecast layout! Learn more

10-Day Weather Forecast

Advertisements
Track Severe Weather on mobile